Impacts METAR Board
IDs:

KTEX - Telluride Rgnl, CO, US

Updated at: 1200 UTC 07 Jul 2020
Potential Impact None Slight Moderate High
Time 07/00Z 07/01Z 07/02Z 07/03Z 07/04Z 07/05Z 07/06Z 07/07Z 07/08Z 07/09Z 07/10Z 07/11Z 07/12Z
Temp73 73 73 68 63 61 61 61 59 59 63 64 63
Dewpt27 30 28 32 32 32 30 30 30 30 28 32 32
Altim30.42 30.39 30.39 30.40 30.41 30.42 30.41 30.40 30.39 30.39 30.40 30.41 30.42
VIS10 10 10 10 10 10 10 10 10 10 10 10 10
CIG-- -- -- -- -- -- -- -- -- -- -- -- --
CoverSCTCLRSCTCLRCLRCLRCLRCLRCLRSCTSCTCLRCLR
FltCatVFRVFRVFRVFRVFRVFRVFRVFRVFRVFRVFRVFRVFR
WX--------------------------
WDir17014011014014014014014014013013016080
WSpd6 5 4 7 6 5 5 5 5 6 5 8 4
WGst-- -- -- -- -- -- -- -- -- -- -- -- --
Raw hourly METARs
KTEX 062355Z AUTO 17006KT 10SM SCT110 23/M03 A3042 RMK AO2
KTEX 070055Z AUTO 14005KT 10SM CLR 23/M01 A3039 RMK AO2 LTG DSNT SE
KTEX 070155Z AUTO 11004KT 10SM SCT110 23/M02 A3039 RMK AO2
KTEX 070255Z AUTO 14007KT 10SM CLR 20/00 A3040 RMK AO2
KTEX 070355Z AUTO 14006KT 10SM CLR 17/00 A3041 RMK AO2
KTEX 070455Z AUTO 14005KT 10SM CLR 16/00 A3042 RMK AO2
KTEX 070555Z AUTO 14005KT 10SM CLR 16/M01 A3041 RMK AO2
KTEX 070655Z AUTO 14005KT 10SM CLR 16/M01 A3040 RMK AO2
KTEX 070755Z AUTO 14005KT 10SM CLR 15/M01 A3039 RMK AO2
KTEX 070855Z AUTO 13006KT 10SM SCT120 15/M01 A3039 RMK AO2
KTEX 070955Z AUTO 13005KT 10SM SCT120 17/M02 A3040 RMK AO2
KTEX 071055Z AUTO 16008KT 10SM CLR 18/00 A3041 RMK AO2
KTEX 071200Z AUTO 08004KT 10SM CLR 17/00 A3042 RMK AO2



Page loaded:  12:46 UTC  |   05:46 AM Pacific  |   06:46 AM Mountain  |   07:46 AM Central  |   08:46 AM Eastern

 

ADVISORIES

FORECASTS

FORECASTS

OBSERVATIONS

USER TOOLS

ABOUT US